createdAt,value
2023-05-21T05:00:17.918Z,101780.25
2023-05-21T05:03:05.688Z,101785.94
2023-05-21T05:05:52.729Z,101779.13
2023-05-21T05:08:39.666Z,101786.47
2023-05-21T05:11:26.507Z,101786.31
2023-05-21T05:14:12.916Z,101791.78
2023-05-21T09:29:49.537Z,101731.22
2023-05-21T09:32:36.364Z,101730.56
2023-05-21T09:35:23.166Z,101728.88
2023-05-21T09:38:09.980Z,101727.88
2023-05-21T09:40:57.150Z,101719.44
2023-05-21T09:43:44.766Z,101726.09
2023-05-21T09:46:40.834Z,101714.56
2023-05-21T09:49:28.603Z,101720.75
2023-05-21T09:52:25.306Z,101714.66
2023-05-21T09:55:13.441Z,101710.41
2023-05-21T09:58:00.175Z,101708.59
2023-05-21T10:00:46.489Z,101708.78
2023-05-21T10:03:39.473Z,101716.00
2023-05-21T10:06:28.441Z,101707.88
2023-05-21T10:09:16.985Z,101710.53
2023-05-21T10:12:03.958Z,101703.75
2023-05-21T10:14:55.558Z,101712.22
2023-05-21T11:06:56.274Z,101677.19
2023-05-21T11:09:43.209Z,101679.44
2023-05-21T11:12:29.966Z,101679.53
2023-05-21T11:15:17.214Z,101670.19
2023-05-21T11:18:03.805Z,101673.72
2023-05-21T11:20:52.723Z,101665.13
2023-05-21T11:23:53.008Z,101650.84
2023-05-21T11:27:02.212Z,101661.06
2023-05-21T11:29:48.524Z,101649.91
2023-05-21T11:32:38.871Z,101644.25
2023-05-21T11:35:25.070Z,101640.22
2023-05-21T11:38:11.395Z,101639.59
2023-05-21T11:41:02.892Z,101645.91
2023-05-21T11:44:01.866Z,101636.94
2023-05-21T11:46:49.390Z,101627.81
2023-05-21T11:49:37.142Z,101629.38
2023-05-21T11:52:24.212Z,101624.41
2023-05-21T11:55:11.225Z,101629.16
2023-05-21T11:58:00.017Z,101618.28
2023-05-21T12:00:46.645Z,101615.84
2023-05-21T12:03:35.844Z,101611.41
2023-05-21T12:06:27.538Z,101607.16
2023-05-21T12:09:14.443Z,101612.84
2023-05-21T12:12:01.761Z,101609.97
2023-05-21T12:14:50.947Z,101605.34
2023-05-21T12:17:37.738Z,101593.44
2023-05-21T12:20:27.039Z,101595.97
2023-05-21T12:23:20.376Z,101595.06
2023-05-21T12:26:07.082Z,101593.31
2023-05-21T12:28:54.877Z,101593.84
2023-05-21T12:31:50.119Z,101587.97
2023-05-21T12:34:41.295Z,101596.13
2023-05-21T12:37:31.273Z,101592.72
2023-05-21T12:40:18.663Z,101593.75
2023-05-21T12:43:05.309Z,101585.75
2023-05-21T12:45:52.745Z,101584.63
2023-05-21T12:48:41.228Z,101594.34
2023-05-21T12:51:38.908Z,101600.13
2023-05-21T12:54:30.033Z,101594.03
2023-05-21T12:57:17.951Z,101601.06
2023-05-21T13:00:07.266Z,101591.84
2023-05-21T13:02:54.598Z,101595.50
2023-05-21T13:05:42.533Z,101600.72
2023-05-21T13:08:29.266Z,101582.69
2023-05-21T13:11:15.673Z,101584.97
2023-05-21T13:14:02.130Z,101586.53
2023-05-21T13:16:48.482Z,101575.81
2023-05-21T13:19:34.855Z,101576.69
2023-05-21T13:22:22.810Z,101587.13
2023-05-21T13:25:10.349Z,101574.94
2023-05-21T13:27:57.261Z,101586.34
2023-05-21T13:30:43.641Z,101579.38
2023-05-21T13:34:05.500Z,101581.25
2023-05-21T13:36:52.287Z,101571.34
2023-05-21T13:39:39.897Z,101576.97
2023-05-21T13:42:26.479Z,101582.63
2023-05-21T13:45:15.215Z,101582.19
2023-05-21T13:48:01.822Z,101578.63
2023-05-21T13:50:48.194Z,101578.50
2023-05-21T13:53:34.684Z,101573.56
2023-05-21T13:56:23.175Z,101576.31
2023-05-21T13:59:09.599Z,101573.84
2023-05-21T14:01:56.264Z,101573.28
2023-05-21T14:04:43.197Z,101571.06
2023-05-21T14:07:29.963Z,101578.78
2023-05-21T14:10:16.284Z,101584.59
2023-05-21T14:13:18.342Z,101578.84
2023-05-21T14:16:07.332Z,101579.88
2023-05-21T14:18:54.009Z,101585.34
2023-05-21T14:21:40.754Z,101580.97
2023-05-21T14:24:27.272Z,101582.69
2023-05-21T14:27:15.285Z,101578.78
2023-05-21T14:30:03.328Z,101594.16
2023-05-21T14:32:49.893Z,101572.06
2023-05-21T14:35:36.543Z,101576.56
2023-05-21T14:38:23.077Z,101570.69
2023-05-21T14:41:09.792Z,101564.50
2023-05-21T14:43:56.053Z,101561.97
2023-05-21T14:46:43.736Z,101552.69
2023-05-21T14:49:30.017Z,101557.47
2023-05-21T14:52:16.569Z,101549.47
2023-05-21T14:55:03.053Z,101549.88
2023-05-21T14:57:51.415Z,101539.75
2023-05-21T15:08:04.520Z,101540.84
2023-05-21T15:10:50.806Z,101529.56
2023-05-21T15:13:37.500Z,101530.59
2023-05-21T15:16:24.014Z,101511.38
2023-05-21T15:19:14.510Z,101528.44
2023-05-21T15:22:03.016Z,101532.91
2023-05-21T15:24:49.538Z,101531.31
2023-05-21T15:27:36.393Z,101536.59
2023-05-21T15:30:23.090Z,101526.88
2023-05-21T15:33:09.763Z,101523.28
2023-05-21T15:35:56.442Z,101531.22
2023-05-21T15:38:44.125Z,101515.78
2023-05-21T15:41:30.559Z,101531.00
2023-05-21T15:44:17.020Z,101520.19
2023-05-21T15:47:03.552Z,101509.06
2023-05-21T15:49:49.887Z,101510.44
2023-05-21T15:52:36.727Z,101512.28
2023-05-21T15:55:24.137Z,101511.53
2023-05-21T15:58:10.737Z,101510.88
2023-05-21T16:00:57.064Z,101519.91
2023-05-21T16:03:43.533Z,101514.00
2023-05-21T16:06:31.406Z,101512.22
2023-05-21T16:09:17.717Z,101510.28
2023-05-21T16:12:06.194Z,101520.56
2023-05-21T16:14:52.878Z,101515.38
2023-05-21T17:14:40.005Z,101515.66
2023-05-21T17:17:26.395Z,101522.34
2023-05-21T17:20:15.880Z,101524.94
2023-05-21T17:23:02.752Z,101518.53
2023-05-21T17:25:50.020Z,101521.59
2023-05-21T17:28:37.081Z,101521.72
2023-05-21T17:31:25.104Z,101517.75
2023-05-21T17:34:11.922Z,101517.94
2023-05-21T17:36:59.916Z,101512.06
2023-05-21T17:39:46.615Z,101508.44
2023-05-21T17:42:32.963Z,101510.16
2023-05-21T17:45:19.500Z,101512.88
2023-05-21T17:48:07.684Z,101514.16
2023-05-21T17:50:54.162Z,101520.91
2023-05-21T17:53:40.596Z,101517.47
2023-05-21T17:56:27.538Z,101520.75
2023-05-21T17:59:14.123Z,101514.09
2023-05-21T18:02:01.989Z,101522.44
2023-05-21T18:04:49.671Z,101530.56
2023-05-21T18:07:38.027Z,101522.91
2023-05-21T18:10:24.951Z,101522.97
2023-05-21T18:13:11.503Z,101522.16
2023-05-21T18:15:58.031Z,101533.63
2023-05-21T18:18:44.866Z,101519.91
2023-05-21T18:21:33.339Z,101527.00
2023-05-21T18:24:19.930Z,101521.03
2023-05-21T18:27:06.919Z,101515.94
2023-05-21T18:29:53.171Z,101520.31
2023-05-21T18:32:39.568Z,101513.16
2023-05-21T18:35:27.126Z,101523.84
2023-05-21T18:38:14.989Z,101526.44
2023-05-21T18:41:03.233Z,101518.34
2023-05-21T18:43:49.808Z,101518.41
2023-05-21T18:46:36.375Z,101514.16
2023-05-21T18:49:22.822Z,101516.44
2023-05-21T18:52:09.466Z,101518.28
2023-05-21T18:54:57.352Z,101516.09
2023-05-21T18:57:43.659Z,101511.34
2023-05-21T19:10:22.548Z,101521.34
2023-05-21T19:13:09.638Z,101512.28
2023-05-21T19:15:57.349Z,101528.94
2023-05-21T19:18:44.018Z,101531.34
2023-05-21T19:21:31.263Z,101525.03
2023-05-21T19:24:17.277Z,101524.97
2023-05-21T19:27:05.808Z,101520.69
2023-05-21T19:29:52.656Z,101527.53
2023-05-21T19:32:38.966Z,101523.19
2023-05-21T19:35:25.004Z,101526.44
2023-05-21T19:38:12.010Z,101527.25
2023-05-21T19:40:58.550Z,101529.06
2023-05-21T19:43:46.497Z,101532.94
2023-05-21T19:46:33.181Z,101533.97
2023-05-21T19:49:20.126Z,101536.59
2023-05-21T19:52:07.094Z,101541.50
2023-05-21T19:54:54.807Z,101553.75
2023-05-21T19:57:41.282Z,101550.91
2023-05-21T20:09:58.221Z,101560.31
2023-05-21T20:12:44.492Z,101557.53
2023-05-21T20:15:30.858Z,101565.03
2023-05-21T20:18:21.433Z,101561.72
2023-05-21T20:21:08.773Z,101549.59
2023-05-21T20:23:54.851Z,101565.59
2023-05-21T20:26:44.887Z,101561.22
2023-05-21T20:29:31.781Z,101564.47
2023-05-21T20:32:20.164Z,101559.34
2023-05-21T20:35:10.534Z,101556.94
2023-05-21T20:37:56.863Z,101550.53
2023-05-21T20:40:43.654Z,101550.16
2023-05-21T20:43:31.278Z,101537.31
2023-05-21T20:46:18.241Z,101538.72
2023-05-21T20:49:05.146Z,101545.91
2023-05-21T20:51:51.982Z,101540.19
2023-05-21T20:54:38.650Z,101532.91
2023-05-21T20:57:25.962Z,101530.34
2023-05-21T21:00:16.304Z,101535.94
2023-05-21T21:03:03.865Z,101526.78
2023-05-21T21:05:50.161Z,101531.81
2023-05-21T21:08:36.389Z,101525.03
2023-05-21T21:11:23.317Z,101543.66
2023-05-21T21:14:09.350Z,101529.97
2023-05-21T21:16:56.876Z,101523.59
2023-05-21T21:19:43.115Z,101523.38
2023-05-21T21:22:29.563Z,101525.78
2023-05-21T21:25:16.341Z,101519.19
2023-05-21T21:28:02.652Z,101523.75
2023-05-21T21:30:48.739Z,101524.44
2023-05-21T21:33:36.439Z,101522.00
2023-05-21T21:36:23.067Z,101527.31
2023-05-21T21:39:09.414Z,101516.69
2023-05-21T21:41:55.507Z,101519.31
2023-05-21T21:44:42.133Z,101503.09
2023-05-21T21:47:29.184Z,101513.75
2023-05-21T21:50:16.948Z,101524.13
2023-05-21T21:53:03.687Z,101524.84
2023-05-21T21:55:50.907Z,101528.63
2023-05-21T21:58:37.584Z,101513.69
2023-05-21T22:01:23.881Z,101513.88
2023-05-21T22:04:11.252Z,101521.25
2023-05-21T22:06:58.956Z,101513.53
2023-05-21T22:09:45.651Z,101521.25
2023-05-21T22:12:31.597Z,101525.53
